Time;durP1;ratioP1;P1;durP2;ratioP2;P2;SDS_P1;SDS_P2;PMS_P1;PMS_P2;Temp;Humidity;BMP_temperature;BMP_pressure;BME280_temperature;BME280_humidity;BME280_pressure;Samples;Min_cycle;Max_cycle;Signal;HPM_P1;HPM_P2
2023/11/14 00:00:51;;;;;;;;;32.00;31.50;;;;;9.09;100.00;98980.66;6280920;20;2836904;-48
2023/11/14 00:03:20;;;;;;;;;39.67;33.00;;;;;9.10;100.00;98960.09;6284218;20;3602489;-46
2023/11/14 00:05:50;;;;;;;;;35.50;33.00;;;;;9.17;100.00;98946.19;6281054;20;2858641;-46
2023/11/14 00:08:19;;;;;;;;;26.50;26.00;;;;;9.18;100.00;98947.03;6283251;20;2850288;-47
2023/11/14 00:10:47;;;;;;;;;30.67;30.33;;;;;9.14;100.00;98953.56;6284079;20;3606542;-47
2023/11/14 00:13:17;;;;;;;;;34.50;32.00;;;;;9.22;100.00;98960.13;6282176;20;2834794;-46
2023/11/14 00:15:47;;;;;;;;;34.33;29.67;;;;;9.14;100.00;98948.22;6281330;20;2863982;-46
2023/11/14 00:18:15;;;;;;;;;36.00;34.33;;;;;9.15;100.00;98942.75;6316192;20;3601293;-46
2023/11/14 00:20:44;;;;;;;;;37.50;33.50;;;;;9.06;100.00;98934.47;6283241;20;2849255;-46
2023/11/14 00:23:14;;;;;;;;;37.33;33.00;;;;;9.18;100.00;98930.97;6283057;20;2850254;-47
2023/11/14 00:25:44;;;;;;;;;34.33;33.00;;;;;9.36;100.00;98934.22;6314312;20;3575274;-48
2023/11/14 00:28:13;;;;;;;;;38.67;33.00;;;;;9.27;100.00;98927.66;6281207;20;3600249;-46
2023/11/14 00:30:43;;;;;;;;;36.33;33.00;;;;;9.30;100.00;98930.13;6313422;20;3588903;-46
2023/11/14 00:33:12;;;;;;;;;34.50;31.00;;;;;9.16;100.00;98939.13;6277667;20;2845053;-46
2023/11/14 00:35:43;;;;;;;;;39.33;33.33;;;;;9.40;100.00;98947.28;6283947;20;3604449;-48
2023/11/14 00:38:13;;;;;;;;;34.00;30.67;;;;;9.39;100.00;98948.25;6281699;20;3608601;-46
2023/11/14 00:40:43;;;;;;;;;30.00;28.67;;;;;9.40;100.00;98947.28;6316578;20;3595081;-47
2023/11/14 00:43:12;;;;;;;;;34.33;28.33;;;;;9.48;100.00;98932.50;6281189;20;3611729;-45
2023/11/14 00:46:10;;;;;;;;;37.67;28.33;;;;;9.51;100.00;98932.31;6314836;20;3636732;-48
2023/11/14 00:48:39;;;;;;;;;32.00;27.33;;;;;9.39;100.00;98934.00;6284324;20;3614940;-48
2023/11/14 00:51:09;;;;;;;;;40.33;30.00;;;;;9.28;100.00;98926.69;6280806;20;3605480;-49
2023/11/14 00:53:38;;;;;;;;;32.33;30.67;;;;;9.45;100.00;98917.47;6315162;20;3604485;-47
2023/11/14 00:56:11;;;;;;;;;34.00;32.00;;;;;9.41;100.00;98916.84;6281783;20;2873298;-47
2023/11/14 00:58:41;;;;;;;;;35.00;31.67;;;;;9.48;100.00;98908.38;6281527;20;2846286;-46
2023/11/14 01:01:10;;;;;;;;;36.00;32.00;;;;;9.56;100.00;98908.72;6312071;20;3599257;-45
2023/11/14 01:03:40;;;;;;;;;32.33;29.67;;;;;9.57;100.00;98905.06;6283168;20;2860808;-45
2023/11/14 01:06:09;;;;;;;;;32.00;28.00;;;;;9.62;100.00;98897.56;6311328;20;3610783;-49
2023/11/14 01:08:39;;;;;;;;;33.00;32.00;;;;;9.70;100.00;98889.84;6283692;20;2846288;-47
2023/11/14 01:11:07;;;;;;;;;49.00;41.00;;;;;9.56;100.00;98901.53;6315475;20;3588999;-46
2023/11/14 01:13:36;;;;;;;;;36.50;33.00;;;;;9.51;100.00;98900.16;6279599;20;2846157;-45
2023/11/14 01:16:08;;;;;;;;;33.33;30.67;;;;;9.45;100.00;98899.59;6284422;20;3604919;-45
2023/11/14 01:18:36;;;;;;;;;32.67;30.00;;;;;9.49;100.00;98897.56;6276825;20;3596468;-48
2023/11/14 01:21:07;;;;;;;;;27.67;27.33;;;;;9.55;100.00;98891.75;6279333;20;2850399;-45
2023/11/14 01:23:36;;;;;;;;;29.33;26.00;;;;;9.56;100.00;98885.47;6313513;20;3598164;-48
2023/11/14 01:26:05;;;;;;;;;32.33;28.00;;;;;9.58;100.00;98875.47;6279590;20;2463872;-46
2023/11/14 01:28:34;;;;;;;;;33.00;29.33;;;;;9.73;100.00;98878.88;6312785;20;3600371;-47
2023/11/14 01:31:04;;;;;;;;;28.67;28.33;;;;;9.54;100.00;98884.69;6281614;20;3602455;-47
2023/11/14 01:33:33;;;;;;;;;31.33;27.67;;;;;9.65;100.00;98883.94;6308411;20;2854503;-46
2023/11/14 01:36:02;;;;;;;;;32.50;28.50;;;;;9.59;100.00;98879.88;6309937;20;2851389;-49
2023/11/14 01:38:32;;;;;;;;;25.00;25.00;;;;;9.67;100.00;98882.00;6281275;20;2862776;-42
2023/11/14 01:41:01;;;;;;;;;31.33;26.33;;;;;9.62;100.00;98882.34;6314870;20;3588913;-44
2023/11/14 01:43:45;;;;;;;;;25.00;25.00;;;;;9.78;100.00;98886.63;6274045;20;2843119;-44
2023/11/14 01:46:17;;;;;;;;;26.67;25.00;;;;;9.80;100.00;98880.19;6312376;20;3587937;-43
2023/11/14 01:48:51;;;;;;;;;34.33;28.00;;;;;9.75;100.00;98865.38;6280361;20;3613247;-43
2023/11/14 01:51:24;;;;;;;;;30.33;29.00;;;;;9.80;100.00;98869.44;6310405;20;3602366;-43
2023/11/14 01:53:57;;;;;;;;;26.50;24.50;;;;;9.83;100.00;98853.13;6277083;20;2843097;-42
2023/11/14 01:56:28;;;;;;;;;28.67;27.00;;;;;9.82;100.00;98862.16;6280317;20;3587757;-44
2023/11/14 01:58:58;;;;;;;;;28.33;27.00;;;;;9.70;100.00;98872.91;6311998;20;3600248;-44
2023/11/14 02:01:27;;;;;;;;;29.67;28.33;;;;;9.82;100.00;98872.00;6274284;20;3591913;-43
2023/11/14 02:03:57;;;;;;;;;30.33;29.33;;;;;9.83;100.00;98858.50;6313133;20;3606520;-43
2023/11/14 02:06:27;;;;;;;;;32.67;26.00;;;;;9.89;100.00;98858.06;6276777;20;2864905;-43
2023/11/14 02:08:56;;;;;;;;;32.00;29.67;;;;;9.85;100.00;98851.22;6313267;20;3604437;-44
2023/11/14 02:11:26;;;;;;;;;30.33;28.33;;;;;9.94;100.00;98838.09;6278396;20;3600284;-44
2023/11/14 02:13:55;;;;;;;;;33.33;27.67;;;;;9.86;100.00;98842.19;6311967;20;2867036;-43
2023/11/14 02:16:24;;;;;;;;;30.00;24.00;;;;;9.92;100.00;98845.41;6312795;20;3576408;-45
2023/11/14 02:18:54;;;;;;;;;31.67;31.00;;;;;9.82;100.00;98835.34;6313477;20;3591944;-44
2023/11/14 02:21:23;;;;;;;;;35.67;31.33;;;;;9.79;100.00;98835.53;6279191;20;2852437;-43
2023/11/14 02:23:53;;;;;;;;;59.67;46.67;;;;;9.62;100.00;98823.38;6312780;20;3628370;-44
2023/11/14 02:26:23;;;;;;;;;40.67;35.00;;;;;9.67;100.00;98831.94;6308171;20;2856606;-44
2023/11/14 02:28:59;;;;;;;;;30.67;27.00;;;;;9.81;100.00;98830.09;6311074;20;3596120;-43
2023/11/14 02:31:29;;;;;;;;;29.33;27.00;;;;;10.02;100.00;98846.44;6277078;20;3602474;-43
2023/11/14 02:33:58;;;;;;;;;25.67;25.00;;;;;9.88;100.00;98826.84;6308584;20;3594140;-44
2023/11/14 02:36:31;;;;;;;;;30.33;29.33;;;;;9.88;100.00;98818.81;6275842;20;3596076;-47
2023/11/14 02:39:02;;;;;;;;;31.67;28.33;;;;;9.97;100.00;98811.06;6279056;20;3608729;-45
2023/11/14 02:41:31;;;;;;;;;28.00;26.33;;;;;9.92;100.00;98808.72;6308744;20;3597169;-45
2023/11/14 02:44:00;;;;;;;;;26.00;23.00;;;;;9.75;100.00;98795.69;6313400;20;2494157;-43
2023/11/14 02:46:30;;;;;;;;;28.33;26.67;;;;;9.78;100.00;98807.03;6285078;20;2855487;-44
2023/11/14 02:49:33;;;;;;;;;34.33;31.67;;;;;10.01;100.00;98834.03;6316977;20;3577479;-44
2023/11/14 02:52:03;;;;;;;;;32.33;30.00;;;;;9.98;100.00;98786.84;6279880;20;2860524;-44
2023/11/14 02:54:32;;;;;;;;;30.67;27.00;;;;;9.77;100.00;98777.66;6316008;20;3600271;-46
2023/11/14 02:57:05;;;;;;;;;33.33;30.67;;;;;9.89;100.00;98785.66;6283754;20;3611765;-44
2023/11/14 02:59:34;;;;;;;;;33.00;31.33;;;;;9.87;100.00;98784.94;6317221;20;3583617;-46
2023/11/14 03:02:07;;;;;;;;;27.67;26.00;;;;;9.88;100.00;98797.38;6280694;20;2854525;-43
2023/11/14 03:04:36;;;;;;;;;29.00;28.00;;;;;10.01;100.00;98796.47;6316251;20;3598184;-43
2023/11/14 03:07:05;;;;;;;;;28.67;28.33;;;;;10.00;100.00;98818.88;6286893;20;3590903;-42
2023/11/14 03:09:34;;;;;;;;;34.67;32.33;;;;;9.95;100.00;98832.63;6286851;20;3573126;-45
2023/11/14 03:12:05;;;;;;;;;31.67;30.33;;;;;10.00;100.00;98827.78;6278598;20;3606549;-44
2023/11/14 03:14:34;;;;;;;;;30.00;28.67;;;;;10.11;100.00;98819.81;6310711;20;3589913;-45
2023/11/14 03:17:04;;;;;;;;;31.33;27.33;;;;;10.03;100.00;98821.31;6280227;20;2858675;-45
2023/11/14 03:19:32;;;;;;;;;32.00;32.00;;;;;10.06;100.00;98826.50;6314945;20;3599210;-44
2023/11/14 03:22:02;;;;;;;;;32.67;28.67;;;;;10.15;100.00;98809.72;6277644;20;3609786;-44
2023/11/14 03:24:31;;;;;;;;;27.33;23.67;;;;;10.17;100.00;98823.03;6313950;20;3584683;-43
2023/11/14 03:27:01;;;;;;;;;31.00;30.00;;;;;10.08;100.00;98819.16;6277709;20;3604539;-43
2023/11/14 03:29:30;;;;;;;;;30.00;28.67;;;;;10.22;100.00;98821.72;6317245;20;3601334;-43
2023/11/14 03:32:00;;;;;;;;;28.00;25.33;;;;;10.18;100.00;98835.44;6282544;20;3597156;-43
2023/11/14 03:34:29;;;;;;;;;29.00;27.67;;;;;10.17;100.00;98845.34;6316251;20;3581621;-45
2023/11/14 03:36:58;;;;;;;;;32.00;28.33;;;;;10.22;100.00;98843.16;6281096;20;3601254;-43
2023/11/14 03:39:33;;;;;;;;;30.67;26.33;;;;;10.14;100.00;98824.09;6314844;20;2870219;-44
2023/11/14 03:42:02;;;;;;;;;26.00;25.33;;;;;10.17;100.00;98823.03;6315995;20;3587874;-46
2023/11/14 03:44:31;;;;;;;;;29.50;26.00;;;;;10.20;100.00;98825.47;6276726;20;2850409;-43
2023/11/14 03:47:00;;;;;;;;;25.00;24.50;;;;;10.28;100.00;98810.53;6282016;20;2856641;-45
2023/11/14 03:49:29;;;;;;;;;30.33;28.67;;;;;10.04;100.00;98809.66;6284857;20;3593995;-43
2023/11/14 03:51:59;;;;;;;;;28.33;26.67;;;;;10.21;100.00;98825.34;6282584;20;2846143;-43
2023/11/14 03:54:27;;;;;;;;;30.00;27.00;;;;;10.24;100.00;98824.25;6314570;20;3601811;-43
2023/11/14 03:56:56;;;;;;;;;27.00;23.50;;;;;10.22;100.00;98837.81;6282366;20;2848220;-44
2023/11/14 03:59:26;;;;;;;;;28.00;26.67;;;;;10.17;100.00;98823.88;6282493;20;3590870;-43
2023/11/14 04:01:55;;;;;;;;;32.67;27.33;;;;;10.04;100.00;98813.19;6316772;20;3606494;-44
2023/11/14 04:04:23;;;;;;;;;26.67;26.00;;;;;10.14;100.00;98813.38;6286852;20;3588762;-45
2023/11/14 04:06:52;;;;;;;;;28.33;26.67;;;;;10.12;100.00;98809.94;6283944;20;3588931;-43
2023/11/14 04:09:21;;;;;;;;;26.00;22.50;;;;;10.13;100.00;98827.72;6280662;20;2848505;-46
2023/11/14 04:11:50;;;;;;;;;26.33;24.67;;;;;9.91;100.00;98824.94;6281810;20;3571150;-43
2023/11/14 04:14:19;;;;;;;;;26.00;25.00;;;;;9.98;100.00;98818.13;6281217;20;2850414;-43
2023/11/14 04:16:48;;;;;;;;;29.50;26.00;;;;;10.03;100.00;98838.31;6283245;20;2856506;-43
2023/11/14 04:19:17;;;;;;;;;25.33;23.67;;;;;10.22;100.00;98837.81;6284847;20;3580456;-43
2023/11/14 04:21:47;;;;;;;;;27.67;25.00;;;;;10.31;100.00;98834.47;6277924;20;2847199;-44
2023/11/14 04:24:14;;;;;;;;;23.00;21.00;;;;;10.22;100.00;98845.84;6312180;20;2500421;-44
2023/11/14 04:26:44;;;;;;;;;23.00;21.67;;;;;10.23;100.00;98863.66;6281963;20;2850269;-46
2023/11/14 04:29:13;;;;;;;;;25.00;23.67;;;;;9.99;100.00;98868.13;6315803;20;3566937;-45
2023/11/14 04:31:42;;;;;;;;;26.33;22.67;;;;;10.33;100.00;98859.34;6314020;20;3592069;-46
2023/11/14 04:34:11;;;;;;;;;24.50;24.00;;;;;10.28;100.00;98860.66;6281111;20;2848389;-45
2023/11/14 04:36:41;;;;;;;;;25.33;23.67;;;;;10.30;100.00;98856.91;6284316;20;3579534;-45
2023/11/14 04:39:10;;;;;;;;;28.00;24.00;;;;;10.42;100.00;98846.22;6283263;20;3585763;-50
2023/11/14 04:41:39;;;;;;;;;28.00;23.00;;;;;10.45;100.00;98837.94;6279577;20;2848197;-47
2023/11/14 04:44:08;;;;;;;;;23.50;23.50;;;;;10.36;100.00;98841.31;6279659;20;2839870;-51
2023/11/14 04:46:42;;;;;;;;;25.00;23.33;;;;;10.32;100.00;98833.50;6279652;20;2848190;-40
2023/11/14 04:49:12;;;;;;;;;25.00;21.00;;;;;10.41;100.00;98842.69;6315221;20;3583633;-40
2023/11/14 04:51:41;;;;;;;;;28.50;22.50;;;;;10.42;100.00;98840.84;6279580;20;2840943;-41
2023/11/14 04:54:10;;;;;;;;;29.00;27.00;;;;;10.26;100.00;98833.91;6281128;20;2857708;-41
2023/11/14 04:56:39;;;;;;;;;26.33;23.67;;;;;10.38;100.00;98845.59;6280142;20;3585734;-48
2023/11/14 04:59:08;;;;;;;;;25.50;24.00;;;;;10.44;100.00;98857.72;6275987;20;2848280;-47
2023/11/14 05:01:38;;;;;;;;;25.67;24.33;;;;;10.56;100.00;98856.81;6282240;20;3589848;-49
2023/11/14 05:04:06;;;;;;;;;25.67;24.00;;;;;10.75;100.00;98875.91;6313469;20;3583582;-46
2023/11/14 05:06:36;;;;;;;;;34.33;32.00;;;;;10.67;100.00;98890.91;6279094;20;3588901;-46
2023/11/14 05:09:05;;;;;;;;;29.33;28.67;;;;;10.69;100.00;98879.06;6313185;20;3589843;-46
2023/11/14 05:11:37;;;;;;;;;31.00;29.00;;;;;10.61;100.00;98894.91;6281656;20;3577329;-50
2023/11/14 05:14:07;;;;;;;;;31.67;25.00;;;;;10.60;100.00;98901.22;6281300;20;2863806;-46
2023/11/14 05:16:43;;;;;;;;;28.00;26.00;;;;;10.38;100.00;98901.09;6311304;20;3575281;-49
2023/11/14 05:19:12;;;;;;;;;27.33;27.33;;;;;10.53;100.00;98921.41;6282080;20;3578504;-49
2023/11/14 05:21:42;;;;;;;;;26.67;25.00;;;;;10.40;100.00;98912.56;6277265;20;2850545;-48
2023/11/14 05:24:10;;;;;;;;;26.67;26.67;;;;;10.67;100.00;98913.22;6315822;20;3584911;-50
2023/11/14 05:26:40;;;;;;;;;26.33;23.33;;;;;10.53;100.00;98913.38;6281185;20;3597279;-47
2023/11/14 05:29:09;;;;;;;;;27.67;25.00;;;;;10.67;100.00;98907.84;6313967;20;3614966;-46
2023/11/14 05:31:39;;;;;;;;;23.67;22.33;;;;;10.55;100.00;98906.91;6276705;20;2854909;-47
2023/11/14 05:34:08;;;;;;;;;22.00;21.00;;;;;10.79;100.00;98906.06;6312619;20;2833596;-45
2023/11/14 05:36:37;;;;;;;;;26.33;24.33;;;;;10.71;100.00;98913.84;6277201;20;3600269;-46
2023/11/14 05:39:07;;;;;;;;;25.67;23.67;;;;;10.77;100.00;98911.56;6314249;20;3597145;-51
2023/11/14 05:41:37;;;;;;;;;23.33;22.00;;;;;10.71;100.00;98898.56;6275942;20;2848207;-50
2023/11/14 05:44:07;;;;;;;;;29.33;26.67;;;;;10.64;100.00;98901.88;6310805;20;2847321;-52
2023/11/14 05:46:36;;;;;;;;;22.50;21.00;;;;;10.70;100.00;98904.94;6310706;20;2846127;-54
2023/11/14 05:49:06;;;;;;;;;27.33;25.33;;;;;10.74;100.00;98902.88;6277300;20;2854609;-53
2023/11/14 05:51:35;;;;;;;;;23.50;23.50;;;;;10.63;100.00;98894.75;6310700;20;2848226;-48
2023/11/14 05:54:05;;;;;;;;;24.67;22.67;;;;;10.55;100.00;98895.34;6278856;20;2853228;-54
2023/11/14 05:56:34;;;;;;;;;22.50;21.00;;;;;10.75;100.00;98902.75;6309976;20;2829504;-53
2023/11/14 05:59:06;;;;;;;;;28.67;23.33;;;;;10.55;100.00;98911.44;6280680;20;2858699;-52
2023/11/14 06:01:36;;;;;;;;;24.33;22.00;;;;;10.93;100.00;98910.41;6307400;20;3584645;-49
2023/11/14 06:04:07;;;;;;;;;27.00;25.50;;;;;10.89;100.00;98906.25;6277640;20;2855569;-47
2023/11/14 06:06:37;;;;;;;;;25.00;23.67;;;;;10.79;100.00;98902.53;6280311;20;3602369;-52
2023/11/14 06:09:06;;;;;;;;;25.67;25.00;;;;;10.84;100.00;98889.63;6313588;20;3591951;-47
2023/11/14 06:11:35;;;;;;;;;28.00;25.00;;;;;10.89;100.00;98895.50;6279814;20;2856677;-44
2023/11/14 06:14:05;;;;;;;;;22.67;22.67;;;;;10.94;100.00;98933.59;6312299;20;2850292;-43
2023/11/14 06:16:34;;;;;;;;;22.67;21.00;;;;;11.00;100.00;98941.19;6309275;20;3585718;-41
2023/11/14 06:19:03;;;;;;;;;26.67;25.33;;;;;11.07;100.00;98938.91;6279434;20;3604489;-45
2023/11/14 06:21:33;;;;;;;;;32.00;30.67;;;;;10.80;100.00;98917.69;6278936;20;2856623;-46
2023/11/14 06:24:02;;;;;;;;;22.67;19.67;;;;;11.07;100.00;98914.75;6315135;20;3576348;-44
2023/11/14 06:26:31;;;;;;;;;20.33;19.33;;;;;11.02;100.00;98927.66;6313909;20;3572166;-44
2023/11/14 06:28:59;;;;;;;;;17.00;17.00;;;;;11.10;100.00;98918.03;6312452;20;2839843;-44
2023/11/14 06:31:28;;;;;;;;;21.00;19.50;;;;;11.18;100.00;98928.19;6280001;20;2847124;-45
2023/11/14 06:33:57;;;;;;;;;18.00;18.00;;;;;11.27;100.00;98911.38;6281514;20;2835689;-45
2023/11/14 06:36:25;;;;;;;;;21.50;21.00;;;;;11.25;100.00;98896.34;6277074;20;2823197;-44
2023/11/14 06:38:55;;;;;;;;;30.67;26.00;;;;;11.23;100.00;98898.31;6280729;20;2862990;-44
2023/11/14 06:41:23;;;;;;;;;21.00;20.00;;;;;11.25;100.00;98890.97;6307993;20;2500281;-44
2023/11/14 06:43:52;;;;;;;;;22.00;18.00;;;;;11.28;100.00;98901.50;6277043;20;2842088;-46
2023/11/14 06:46:20;;;;;;;;;20.00;18.50;;;;;11.69;100.00;98903.66;6279084;20;2496229;-46
2023/11/14 06:48:48;;;;;;;;;23.50;19.00;;;;;12.00;100.00;98910.16;6276234;20;2500200;-43
2023/11/14 06:51:16;;;;;;;;;22.50;19.00;;;;;12.06;100.00;98906.13;6275516;20;2843120;-45
2023/11/14 06:53:48;;;;;;;;;22.33;20.33;;;;;11.44;100.00;98910.06;6279936;20;3571181;-42
2023/11/14 06:56:19;;;;;;;;;23.50;22.00;;;;;11.51;100.00;98905.94;6276692;20;2836760;-44
2023/11/14 06:58:48;;;;;;;;;25.00;21.00;;;;;11.62;100.00;98916.69;6276643;20;2834645;-42
2023/11/14 07:01:18;;;;;;;;;28.33;26.00;;;;;11.52;100.00;98921.09;6278178;20;2856599;-43
2023/11/14 07:03:49;;;;;;;;;21.00;20.33;;;;;11.69;100.00;98913.53;6311260;20;3582539;-49
2023/11/14 07:06:19;;;;;;;;;18.00;18.00;;;;;11.61;100.00;98906.06;6310352;20;2827436;-48
2023/11/14 07:08:47;;;;;;;;;21.00;18.00;;;;;11.62;100.00;98905.94;6275705;20;2485637;-49
2023/11/14 07:11:15;;;;;;;;;16.50;16.50;;;;;11.62;100.00;98911.31;6277396;20;2502387;-48
2023/11/14 07:13:47;;;;;;;;;24.00;19.00;;;;;11.95;100.00;98927.63;6280080;20;2846124;-46
2023/11/14 07:16:15;;;;;;;;;18.00;18.00;;;;;11.86;100.00;98927.38;6278226;20;2500427;-49
2023/11/14 07:18:43;;;;;;;;;16.50;16.00;;;;;11.72;100.00;98935.66;6277719;20;2491974;-50
2023/11/14 07:21:12;;;;;;;;;18.33;18.00;;;;;11.73;100.00;98949.97;6276323;20;3579500;-48
2023/11/14 07:23:41;;;;;;;;;32.33;24.33;;;;;11.86;100.00;98950.75;6275955;20;3612857;-51
2023/11/14 07:26:10;;;;;;;;;47.33;38.00;;;;;11.86;100.00;98930.09;6311263;20;3598205;-48
2023/11/14 07:28:41;;;;;;;;;22.67;22.67;;;;;11.91;100.00;98935.09;6280066;20;2850403;-50
2023/11/14 07:31:10;;;;;;;;;23.00;20.50;;;;;12.01;100.00;98928.03;6312741;20;2832602;-47
2023/11/14 07:33:39;;;;;;;;;20.00;16.00;;;;;11.75;100.00;98938.13;6285170;20;2829417;-49
2023/11/14 07:36:07;;;;;;;;;25.00;24.00;;;;;11.68;100.00;98936.88;6279321;20;2466936;-50
2023/11/14 07:38:36;;;;;;;;;27.33;25.67;;;;;11.62;100.00;98903.25;6287097;20;3606529;-49
2023/11/14 07:41:10;;;;;;;;;19.50;17.00;;;;;11.92;100.00;98874.94;6281795;20;2500422;-43
2023/11/14 07:43:39;;;;;;;;;19.00;18.00;;;;;11.79;100.00;98888.47;6284165;20;2840869;-41
2023/11/14 07:46:09;;;;;;;;;21.00;20.00;;;;;11.94;100.00;98899.88;6280887;20;2500351;-43
2023/11/14 07:48:38;;;;;;;;;24.50;20.50;;;;;11.94;100.00;98921.41;6284495;20;2841933;-43
2023/11/14 07:51:07;;;;;;;;;24.67;21.67;;;;;12.15;100.00;98928.75;6283841;20;2845201;-41
2023/11/14 07:53:37;;;;;;;;;22.00;22.00;;;;;12.66;100.00;98928.16;6314030;20;2843004;-42
2023/11/14 07:56:06;;;;;;;;;25.33;21.67;;;;;12.46;100.00;98919.06;6316256;20;3587796;-42
2023/11/14 07:58:35;;;;;;;;;22.00;22.00;;;;;12.34;100.00;98928.97;6282701;20;2828619;-43
2023/11/14 08:01:04;;;;;;;;;20.00;20.00;;;;;12.33;100.00;98919.19;6284817;20;2835719;-44
2023/11/14 08:03:33;;;;;;;;;26.67;26.67;;;;;12.71;100.00;98899.88;6286625;20;3594052;-43
2023/11/14 08:06:03;;;;;;;;;21.00;21.00;;;;;12.39;100.00;98913.28;6282424;20;2842091;-45
2023/11/14 08:08:32;;;;;;;;;27.00;24.67;;;;;12.91;100.00;98919.78;6285139;20;2846228;-43
2023/11/14 08:11:02;;;;;;;;;28.00;27.00;;;;;12.79;100.00;98912.69;6314743;20;3591093;-42
2023/11/14 08:13:31;;;;;;;;;24.67;23.67;;;;;12.66;100.00;98895.84;6283966;20;3589224;-42
2023/11/14 08:16:01;;;;;;;;;21.00;21.00;;;;;12.47;100.00;98893.81;6280838;20;2843074;-42
2023/11/14 08:18:30;;;;;;;;;28.00;25.00;;;;;12.62;100.00;98932.97;6317704;20;2669086;-43
2023/11/14 08:20:59;;;;;;;;;26.67;25.00;;;;;12.63;100.00;98933.81;6316881;20;3593961;-44
2023/11/14 08:23:28;;;;;;;;;27.00;22.33;;;;;12.81;100.00;98937.69;6285526;20;2849187;-44
2023/11/14 08:25:57;;;;;;;;;20.00;16.00;;;;;12.75;100.00;98954.34;6318373;20;3562745;-43
2023/11/14 08:28:26;;;;;;;;;21.00;19.00;;;;;12.57;100.00;98947.78;6317225;20;2835769;-43
2023/11/14 08:30:55;;;;;;;;;23.50;20.00;;;;;12.64;100.00;98946.31;6285832;20;2834693;-41
2023/11/14 08:33:23;;;;;;;;;21.50;17.50;;;;;12.77;100.00;98952.41;6283207;20;2491952;-40
2023/11/14 08:35:52;;;;;;;;;20.00;18.00;;;;;12.74;100.00;98958.00;6281911;20;2831629;-43
2023/11/14 08:38:22;;;;;;;;;16.50;15.00;;;;;12.61;100.00;98925.00;6284959;20;2812795;-43
2023/11/14 08:40:50;;;;;;;;;15.67;14.67;;;;;12.60;100.00;98918.75;6281347;20;3535782;-42
2023/11/14 08:43:20;;;;;;;;;16.00;15.50;;;;;12.81;100.00;98932.28;6284538;20;2500260;-42
2023/11/14 08:45:48;;;;;;;;;19.50;17.50;;;;;12.66;100.00;98920.94;6285507;20;2837860;-41
2023/11/14 08:48:17;;;;;;;;;18.50;18.50;;;;;12.66;100.00;98938.94;6283008;20;2825267;-42
2023/11/14 08:51:05;;;;;;;;;20.50;19.00;;;;;12.83;100.00;98937.56;6270173;20;2839929;-44
2023/11/14 08:53:34;;;;;;;;;23.00;17.00;;;;;12.85;100.00;98955.31;6282326;20;2839916;-43
2023/11/14 08:56:05;;;;;;;;;23.00;18.00;;;;;12.81;100.00;98972.69;6271516;20;2832740;-42
2023/11/14 08:58:34;;;;;;;;;19.00;18.00;;;;;12.87;100.00;98999.13;6273774;20;2821199;-43
2023/11/14 09:01:04;;;;;;;;;26.00;22.00;;;;;12.77;100.00;99008.97;6275090;20;2845079;-41
2023/11/14 09:03:33;;;;;;;;;20.50;20.50;;;;;12.71;100.00;99031.00;6272328;20;2846123;-42
2023/11/14 09:06:02;;;;;;;;;19.00;19.00;;;;;12.50;100.00;99044.34;6276397;20;2841948;-41
2023/11/14 09:08:31;;;;;;;;;30.00;24.00;;;;;12.58;100.00;99051.81;6277500;20;3590874;-40
2023/11/14 09:11:01;;;;;;;;;22.00;21.00;;;;;12.64;100.00;99059.44;6274477;20;2840928;-42
2023/11/14 09:13:33;;;;;;;;;26.67;22.67;;;;;12.72;100.00;99052.44;6306155;20;3586704;-51
2023/11/14 09:16:02;;;;;;;;;22.00;19.00;;;;;12.83;100.00;99045.31;6273091;20;2823316;-46
2023/11/14 09:18:33;;;;;;;;;23.50;22.50;;;;;12.66;100.00;99057.44;6273732;20;2848189;-46
2023/11/14 09:21:02;;;;;;;;;23.00;22.00;;;;;12.73;100.00;99064.06;6275339;20;2844100;-45
2023/11/14 09:23:33;;;;;;;;;19.00;17.50;;;;;12.77;100.00;99049.38;6274376;20;2826335;-48
2023/11/14 09:26:03;;;;;;;;;19.33;18.00;;;;;12.93;100.00;99041.75;6278565;20;3566937;-51
2023/11/14 09:28:37;;;;;;;;;26.00;23.00;;;;;13.03;100.00;99054.47;6270592;20;2831547;-47
2023/11/14 09:31:07;;;;;;;;;23.67;21.00;;;;;13.08;100.00;99054.94;6277691;20;3561773;-47
2023/11/14 09:33:36;;;;;;;;;24.00;21.00;;;;;13.11;100.00;99087.03;6305453;20;3585723;-48
2023/11/14 09:36:06;;;;;;;;;19.00;17.50;;;;;12.87;100.00;99071.03;6267212;20;2829610;-45
2023/11/14 09:38:38;;;;;;;;;20.00;19.00;;;;;12.96;100.00;99060.38;6274062;20;2837914;-45
2023/11/14 09:41:08;;;;;;;;;17.50;17.00;;;;;13.00;100.00;99068.19;6273457;20;2830578;-49
2023/11/14 09:43:41;;;;;;;;;32.67;26.33;;;;;12.98;100.00;99083.63;6275842;20;3601821;-48
2023/11/14 09:46:13;;;;;;;;;25.00;23.00;;;;;13.06;100.00;99081.16;6275431;20;3589914;-47
2023/11/14 09:48:43;;;;;;;;;15.00;13.50;;;;;13.03;100.00;99071.47;6272745;20;2805508;-43
2023/11/14 09:51:13;;;;;;;;;23.50;23.50;;;;;13.00;100.00;99065.50;6282423;20;2843013;-42
2023/11/14 09:53:44;;;;;;;;;28.00;25.00;;;;;13.23;100.00;99061.78;6272214;20;2850276;-44
2023/11/14 09:56:15;;;;;;;;;27.33;25.33;;;;;13.21;100.00;99052.94;6307187;20;3594002;-44
2023/11/14 09:58:45;;;;;;;;;41.00;36.00;;;;;13.10;100.00;99052.97;6268960;20;3615926;-43
2023/11/14 10:01:14;;;;;;;;;34.00;27.33;;;;;13.24;100.00;99055.38;6300533;20;3604417;-48
2023/11/14 10:03:44;;;;;;;;;35.00;31.67;;;;;13.04;100.00;99056.19;6274109;20;2853391;-50
2023/11/14 10:06:13;;;;;;;;;20.00;19.50;;;;;13.07;100.00;99053.25;6303501;20;2840910;-49
2023/11/14 10:08:42;;;;;;;;;22.00;19.33;;;;;12.98;100.00;99040.50;6275290;20;3575286;-50
2023/11/14 10:11:23;;;;;;;;;18.67;15.33;;;;;12.74;100.00;99033.44;6267887;20;3542965;-47
2023/11/14 10:14:04;;;;;;;;;16.00;16.00;;;;;12.99;100.00;99031.47;6274708;20;2837821;-48
2023/11/14 10:16:35;;;;;;;;;21.67;20.67;;;;;12.73;100.00;99015.56;6273269;20;2838844;-44
2023/11/14 10:19:15;;;;;;;;;23.67;20.67;;;;;12.75;100.00;98992.06;6305627;20;3585056;-50
2023/11/14 10:21:44;;;;;;;;;28.00;26.00;;;;;12.93;100.00;99001.34;6271536;20;3598208;-47
2023/11/14 10:24:18;;;;;;;;;19.33;19.33;;;;;12.81;100.00;98996.94;6305835;20;3568006;-51
2023/11/14 10:26:52;;;;;;;;;21.00;16.00;;;;;12.78;100.00;98991.81;6267841;20;2487822;-47
2023/11/14 10:29:23;;;;;;;;;21.00;19.00;;;;;12.63;100.00;98987.69;6272735;20;2831523;-47
2023/11/14 10:31:52;;;;;;;;;12.50;12.50;;;;;12.78;100.00;98978.34;6273290;20;2788825;-49
2023/11/14 10:34:30;;;;;;;;;15.50;15.00;;;;;12.76;100.00;98980.31;6272531;20;2500961;-47
2023/11/14 10:37:01;;;;;;;;;15.50;12.00;;;;;12.71;100.00;98979.81;6276164;20;2795082;-46
2023/11/14 10:39:30;;;;;;;;;15.33;15.00;;;;;12.83;100.00;98973.44;6271000;20;3526327;-48
2023/11/14 10:42:10;;;;;;;;;15.50;14.00;;;;;12.70;100.00;98970.91;6301545;20;2500267;-47
2023/11/14 10:44:40;;;;;;;;;8.00;7.60;;;;;12.79;100.00;98981.88;6298029;20;2731619;-46
2023/11/14 10:47:09;;;;;;;;;12.67;12.67;;;;;12.51;100.00;98979.63;6299397;20;3515896;-49
2023/11/14 10:49:47;;;;;;;;;14.67;12.00;;;;;12.53;100.00;98963.31;6300807;20;3532582;-47
2023/11/14 10:52:18;;;;;;;;;12.00;12.00;;;;;12.82;100.00;98966.34;6268055;20;3508708;-47
2023/11/14 10:54:47;;;;;;;;;15.50;14.00;;;;;12.95;100.00;98964.34;6298229;20;3406558;-50
2023/11/14 10:57:19;;;;;;;;;17.00;12.67;;;;;13.04;100.00;98967.25;6299614;20;3539982;-54
2023/11/14 10:59:58;;;;;;;;;16.33;15.33;;;;;13.14;100.00;98950.19;6265859;20;3546084;-51
2023/11/14 11:02:32;;;;;;;;;19.00;15.67;;;;;13.34;100.00;98950.38;6269682;20;2821156;-47
2023/11/14 11:05:03;;;;;;;;;17.00;14.00;;;;;13.28;100.00;98962.53;6305960;20;2805507;-50
2023/11/14 11:07:31;;;;;;;;;16.00;14.00;;;;;13.51;100.00;98984.00;6281524;20;2802413;-51
2023/11/14 11:10:00;;;;;;;;;11.33;11.33;;;;;13.60;100.00;98983.22;6273783;20;3530475;-50